createdAt,value
2016-06-10T08:27:41.669Z,1012.07
2016-06-10T08:28:41.641Z,1012.07
2016-06-10T08:29:41.628Z,1012.05
2016-06-10T08:30:41.663Z,1012.04
2016-06-10T08:31:41.620Z,1012.15
2016-06-10T08:32:41.559Z,1012.18
2016-06-10T08:33:41.562Z,1012.15
2016-06-10T08:34:41.534Z,1012.23
2016-06-10T08:35:41.538Z,1012.18
2016-06-10T08:36:41.479Z,1012.21
2016-06-10T08:37:41.466Z,1012.19
2016-06-10T08:38:41.453Z,1012.16
2016-06-10T08:39:41.441Z,1012.13
2016-06-10T08:40:41.412Z,1012.16
2016-06-10T08:41:41.385Z,1012.17
2016-06-10T08:42:41.418Z,1012.14
2016-06-10T08:43:41.359Z,1012.12
2016-06-10T08:44:41.331Z,1012.14
2016-06-10T08:45:41.318Z,1012.17
2016-06-10T08:46:41.369Z,1012.15
2016-06-10T08:47:41.356Z,1012.12
2016-06-10T08:48:41.250Z,1012.15
2016-06-10T08:49:41.269Z,1012.09
2016-06-10T08:50:41.225Z,1012.09
2016-06-10T08:51:41.196Z,1012.1
2016-06-10T08:52:41.215Z,1012.16
2016-06-10T08:53:41.187Z,1012.12
2016-06-10T08:54:41.175Z,1012.11
2016-06-10T08:55:41.131Z,1012.08
2016-06-10T08:56:41.102Z,1012.04
2016-06-10T08:57:41.122Z,1012.07
2016-06-10T08:58:41.078Z,1012.07
2016-06-10T08:59:41.050Z,1012.05
2016-06-10T09:00:41.068Z,1012.07
2016-06-10T09:01:41.071Z,1012.1
2016-06-10T09:02:40.996Z,1012.06
2016-06-10T09:03:41.030Z,1012.09
2016-06-10T09:04:41.002Z,1012.07
2016-06-10T09:05:40.928Z,1012.06
2016-06-10T09:06:40.962Z,1012.09
2016-06-10T09:07:40.902Z,1012.09
2016-06-10T09:08:40.889Z,1012.09
2016-06-10T09:09:40.861Z,1012.06
2016-06-10T09:10:40.848Z,1012.1
2016-06-10T09:11:40.820Z,1012.14
2016-06-10T09:12:40.979Z,1012.19
2016-06-10T09:13:40.827Z,1012.15
2016-06-10T09:14:40.767Z,1012.13
2016-06-10T09:15:40.738Z,1012.15
2016-06-10T09:16:40.727Z,1012.14
2016-06-10T09:17:40.730Z,1012.16
2016-06-10T09:18:40.701Z,1012.18
2016-06-10T09:19:40.720Z,1012.12
2016-06-10T09:20:40.676Z,1012.12
2016-06-10T09:21:40.632Z,1012.1
2016-06-10T09:22:40.604Z,1012.08
2016-06-10T09:23:40.592Z,1012.16
2016-06-10T09:24:40.642Z,1012.11
2016-06-10T09:25:40.614Z,1012.13
2016-06-10T09:26:40.586Z,1012.13
2016-06-10T09:27:40.557Z,1012.1
2016-06-10T09:28:40.544Z,1012.12
2016-06-10T09:29:40.485Z,1012.11
2016-06-10T09:30:40.457Z,1012.09
2016-06-10T09:31:40.444Z,1012.11
2016-06-10T09:32:40.448Z,1012.11
2016-06-10T09:33:40.482Z,1012.1
2016-06-10T09:34:40.422Z,1012.1
2016-06-10T09:35:40.378Z,1012.01
2016-06-10T09:36:40.350Z,1012.03
2016-06-10T09:37:40.337Z,1012.05
2016-06-10T09:38:40.325Z,1011.97
2016-06-10T09:39:40.298Z,1012
2016-06-10T09:40:40.316Z,1011.97
2016-06-10T09:41:40.304Z,1011.9
2016-06-10T09:42:40.385Z,1011.89
2016-06-10T09:43:40.216Z,1011.89
2016-06-10T09:44:40.203Z,1011.88
2016-06-10T09:45:40.191Z,1011.85
2016-06-10T09:46:40.194Z,1011.85
2016-06-10T09:47:40.150Z,1011.85
2016-06-10T09:48:40.122Z,1011.86
2016-06-10T09:49:40.110Z,1011.86
2016-06-10T09:50:40.112Z,1011.84
2016-06-10T09:51:40.069Z,1011.81
2016-06-10T09:52:40.056Z,1011.81
2016-06-10T09:53:40.028Z,1011.87
2016-06-10T09:54:40.015Z,1011.84
2016-06-10T09:55:39.987Z,1011.82
2016-06-10T09:56:39.975Z,1011.84
2016-06-10T09:57:39.962Z,1011.83
2016-06-10T09:58:39.934Z,1011.85
2016-06-10T09:59:39.921Z,1011.83
2016-06-10T10:00:39.893Z,1011.82
2016-06-10T10:01:39.880Z,1011.78
2016-06-10T10:02:39.868Z,1011.79
2016-06-10T10:03:39.840Z,1011.78
2016-06-10T10:04:39.828Z,1011.78
2016-06-10T10:05:39.815Z,1011.77
2016-06-10T10:06:39.834Z,1011.78
2016-06-10T10:07:39.774Z,1011.75
2016-06-10T10:08:39.808Z,1011.83
2016-06-10T10:09:39.749Z,1011.84
2016-06-10T10:10:39.721Z,1011.82
2016-06-10T10:11:39.692Z,1011.79
2016-06-10T10:12:39.680Z,1011.81
2016-06-10T10:13:39.652Z,1011.83
2016-06-10T10:14:39.639Z,1011.72
2016-06-10T10:15:39.612Z,1011.8
2016-06-10T10:16:39.629Z,1011.83
2016-06-10T10:17:39.617Z,1011.85
2016-06-10T10:18:39.557Z,1011.83
2016-06-10T10:19:39.561Z,1011.83
2016-06-10T10:20:39.533Z,1011.82
2016-06-10T10:21:39.504Z,1011.86
2016-06-10T10:22:39.492Z,1011.8
2016-06-10T10:23:39.464Z,1011.82
2016-06-10T10:24:39.451Z,1011.8
2016-06-10T10:25:39.485Z,1011.84
2016-06-10T10:26:39.410Z,1011.79
2016-06-10T10:27:39.398Z,1011.86
2016-06-10T10:28:39.369Z,1011.75
2016-06-10T10:29:39.357Z,1011.83
2016-06-10T10:30:39.344Z,1011.77
2016-06-10T10:31:39.316Z,1011.78
2016-06-10T10:32:39.303Z,1011.74
2016-06-10T10:33:39.276Z,1011.75
2016-06-10T10:34:39.279Z,1011.69
2016-06-10T10:35:39.251Z,1011.72
2016-06-10T10:36:39.223Z,1011.73
2016-06-10T10:37:39.194Z,1011.71
2016-06-10T10:38:39.182Z,1011.69
2016-06-10T10:39:39.169Z,1011.69
2016-06-10T10:40:39.142Z,1011.7
2016-06-10T10:41:39.145Z,1011.72
2016-06-10T10:42:39.117Z,1011.65
2016-06-10T10:43:39.087Z,1011.69
2016-06-10T10:44:39.076Z,1011.67
2016-06-10T10:45:39.047Z,1011.66
2016-06-10T10:46:39.034Z,1011.63
2016-06-10T10:47:39.021Z,1011.64
2016-06-10T10:48:38.993Z,1011.64
2016-06-10T10:49:38.966Z,1011.58
2016-06-10T10:50:38.953Z,1011.58
2016-06-10T10:51:38.925Z,1011.58
2016-06-10T10:52:38.912Z,1011.58
2016-06-10T10:53:38.900Z,1011.58
2016-06-10T10:54:38.871Z,1011.56
2016-06-10T10:55:38.860Z,1011.54
2016-06-10T10:56:38.831Z,1011.56
2016-06-10T10:57:38.819Z,1011.53
2016-06-10T10:58:38.806Z,1011.56
2016-06-10T10:59:38.855Z,1011.55
2016-06-10T11:00:38.764Z,1011.57
2016-06-10T11:01:38.736Z,1011.51
2016-06-10T11:02:38.724Z,1011.48
2016-06-10T11:03:38.696Z,1011.55
2016-06-10T11:04:38.699Z,1011.53
2016-06-10T11:05:38.655Z,1011.49
2016-06-10T11:06:38.643Z,1011.46
2016-06-10T11:07:38.630Z,1011.47
2016-06-10T11:08:38.633Z,1011.47
2016-06-10T11:09:38.589Z,1011.46
2016-06-10T11:10:38.562Z,1011.42
2016-06-10T11:11:38.548Z,1011.41
2016-06-10T11:12:38.537Z,1011.46
2016-06-10T11:13:38.507Z,1011.42
2016-06-10T11:14:38.495Z,1011.45
2016-06-10T11:15:38.468Z,1011.43
2016-06-10T11:16:38.455Z,1011.46
2016-06-10T11:17:38.458Z,1011.42
2016-06-10T11:18:38.414Z,1011.42
2016-06-10T11:19:38.401Z,1011.35
2016-06-10T11:20:38.374Z,1011.43
2016-06-10T11:21:38.393Z,1011.36
2016-06-10T11:22:38.364Z,1011.35
2016-06-10T11:23:38.321Z,1011.34
2016-06-10T11:24:38.291Z,1011.35
2016-06-10T11:25:38.280Z,1011.32
2016-06-10T11:26:38.267Z,1011.35
2016-06-10T11:27:38.301Z,1011.3
2016-06-10T11:28:38.211Z,1011.27
2016-06-10T11:29:38.197Z,1011.27
2016-06-10T11:30:38.217Z,1011.22
2016-06-10T11:31:38.188Z,1011.17
2016-06-10T11:32:38.191Z,1011.22
2016-06-10T11:33:38.116Z,1011.15
2016-06-10T11:34:38.135Z,1011.2
2016-06-10T11:35:38.091Z,1011.17
2016-06-10T11:36:38.125Z,1011.18
2016-06-10T11:37:38.047Z,1011.14
2016-06-10T11:38:38.066Z,1011.18
2016-06-10T11:39:38.007Z,1011.14
2016-06-10T11:40:38.026Z,1011.09
2016-06-10T11:41:37.965Z,1011.08
2016-06-10T11:42:38.000Z,1011.09
2016-06-10T11:43:37.926Z,1011.07
2016-06-10T11:44:37.928Z,1011.09
2016-06-10T11:45:37.939Z,1011.12
2016-06-10T11:46:37.965Z,1011.09
2016-06-10T11:47:37.977Z,1011.11
2016-06-10T11:48:38.003Z,1011.07
2016-06-10T11:49:38.020Z,1011.09
2016-06-10T11:50:38.006Z,1011.05
2016-06-10T11:51:38.008Z,1011
2016-06-10T11:52:37.994Z,1011.03
2016-06-10T11:53:37.996Z,1011.05
2016-06-10T11:54:37.993Z,1010.98
2016-06-10T11:55:38.032Z,1011.02
2016-06-10T11:56:37.962Z,1011.03
2016-06-10T11:57:37.940Z,1011
2016-06-10T11:58:38.370Z,1011
2016-06-10T11:59:37.955Z,1010.97
2016-06-10T12:00:37.897Z,1010.98
2016-06-10T12:01:37.902Z,1010.9
2016-06-10T12:02:37.908Z,1010.99
2016-06-10T12:03:37.850Z,1010.96
2016-06-10T12:04:37.870Z,1010.97
2016-06-10T12:05:37.810Z,1010.92
2016-06-10T12:06:37.783Z,1010.89
2016-06-10T12:07:37.770Z,1010.93
2016-06-10T12:08:37.759Z,1010.88
2016-06-10T12:09:37.730Z,1010.87
2016-06-10T12:10:37.718Z,1010.92
2016-06-10T12:11:37.691Z,1010.93
2016-06-10T12:12:37.898Z,1010.97
2016-06-10T12:13:37.698Z,1010.93
2016-06-10T12:14:40.672Z,1010.95
2016-06-10T12:15:37.610Z,1010.88
2016-06-10T12:16:37.598Z,1010.87
2016-06-10T12:17:37.569Z,1010.86
2016-06-10T12:18:37.573Z,1010.84
2016-06-10T12:19:37.545Z,1010.86
2016-06-10T12:20:37.563Z,1010.85
2016-06-10T12:21:37.504Z,1010.82
2016-06-10T12:22:37.476Z,1010.84
2016-06-10T12:23:37.463Z,1010.82
2016-06-10T12:24:37.436Z,1010.79
2016-06-10T12:25:37.423Z,1010.8
2016-06-10T12:26:37.409Z,1010.83
2016-06-10T12:27:37.381Z,1010.85
2016-06-10T12:28:37.370Z,1010.78
2016-06-10T12:29:37.340Z,1010.82
2016-06-10T12:30:37.329Z,1010.8
2016-06-10T12:31:37.332Z,1010.72
2016-06-10T12:32:37.287Z,1010.78
2016-06-10T12:33:37.274Z,1010.8
2016-06-10T12:34:37.247Z,1010.78
2016-06-10T12:35:37.234Z,1010.72
2016-06-10T12:36:37.222Z,1010.71
2016-06-10T12:37:37.240Z,1010.75
2016-06-10T12:38:37.181Z,1010.78
2016-06-10T12:39:37.154Z,1010.77
2016-06-10T12:40:37.140Z,1010.74
2016-06-10T12:41:37.174Z,1010.74
2016-06-10T12:42:37.724Z,1010.71
2016-06-10T12:43:37.072Z,1010.64
2016-06-10T12:44:37.059Z,1010.64
2016-06-10T12:45:37.031Z,1010.69
2016-06-10T12:46:37.018Z,1010.68
2016-06-10T12:47:37.053Z,1010.63
2016-06-10T12:48:36.977Z,1010.61
2016-06-10T12:49:36.980Z,1010.62
2016-06-10T12:50:37.015Z,1010.62
2016-06-10T12:51:36.925Z,1010.62
2016-06-10T12:52:36.974Z,1010.55
2016-06-10T12:53:36.884Z,1010.56
2016-06-10T12:54:36.933Z,1010.56
2016-06-10T12:55:36.905Z,1010.53
2016-06-10T12:56:36.892Z,1010.57
2016-06-10T12:57:36.865Z,1010.53
2016-06-10T12:58:36.821Z,1010.53
2016-06-10T12:59:36.808Z,1010.5
2016-06-10T13:00:36.827Z,1010.49
2016-06-10T13:01:36.766Z,1010.55
2016-06-10T13:02:36.724Z,1010.59
2016-06-10T13:03:36.695Z,1010.53
2016-06-10T13:04:36.745Z,1010.5
2016-06-10T13:05:36.686Z,1010.54
2016-06-10T13:06:36.657Z,1010.5
2016-06-10T13:07:36.615Z,1010.44
2016-06-10T13:08:36.585Z,1010.46
2016-06-10T13:09:36.574Z,1010.48
2016-06-10T13:10:36.591Z,1010.48
2016-06-10T13:11:36.532Z,1010.44
2016-06-10T13:12:36.520Z,1010.39
2016-06-10T13:13:36.491Z,1010.38
2016-06-10T13:14:36.495Z,1010.37
2016-06-10T13:15:36.451Z,1010.36
2016-06-10T13:16:36.438Z,1010.29
2016-06-10T13:17:36.426Z,1010.29
2016-06-10T13:18:36.398Z,1010.33
2016-06-10T13:19:36.416Z,1010.32
2016-06-10T13:20:36.357Z,1010.35
2016-06-10T13:21:36.344Z,1010.29
2016-06-10T13:22:36.317Z,1010.27
2016-06-10T13:23:36.304Z,1010.28
2016-06-10T13:24:36.276Z,1010.3
2016-06-10T13:25:36.310Z,1010.34
2016-06-10T13:26:36.235Z,1010.31
2016-06-10T13:27:36.222Z,1010.24
2016-06-10T13:28:36.194Z,1010.29
2016-06-10T13:29:36.182Z,1010.32
2016-06-10T13:30:36.169Z,1010.31
2016-06-10T13:31:36.141Z,1010.32
2016-06-10T13:32:36.128Z,1010.27
2016-06-10T13:33:36.179Z,1010.25
2016-06-10T13:34:36.182Z,1010.29
2016-06-10T13:35:36.138Z,1010.31
2016-06-10T13:36:36.046Z,1010.26
2016-06-10T13:37:36.113Z,1010.21
2016-06-10T13:38:36.053Z,1010.22
2016-06-10T13:39:36.072Z,1010.24
2016-06-10T13:40:42.309Z,1010.29
2016-06-10T13:41:36.000Z,1010.28
2016-06-10T13:42:35.940Z,1010.24
2016-06-10T13:43:35.912Z,1010.3
2016-06-10T13:44:35.993Z,1010.25
2016-06-10T13:45:35.871Z,1010.25
2016-06-10T13:46:35.859Z,1010.26
2016-06-10T13:47:35.831Z,1010.24
2016-06-10T13:48:35.818Z,1010.2
2016-06-10T13:49:35.789Z,1010.19
2016-06-10T13:50:35.777Z,1010.17
2016-06-10T13:51:35.749Z,1010.12
2016-06-10T13:52:35.736Z,1010.19
2016-06-10T13:53:35.724Z,1010.18
2016-06-10T13:54:35.696Z,1010.12
2016-06-10T13:55:35.683Z,1010.13
2016-06-10T13:56:35.655Z,1010.08
2016-06-10T13:57:35.643Z,1010.11
2016-06-10T13:58:35.630Z,1010.16
2016-06-10T13:59:35.602Z,1010.15
2016-06-10T14:00:35.573Z,1010.1
2016-06-10T14:01:35.562Z,1010.14
2016-06-10T14:02:35.549Z,1010.13
2016-06-10T14:03:35.521Z,1010.12
2016-06-10T14:04:35.508Z,1010.16
2016-06-10T14:05:35.527Z,1010.19
2016-06-10T14:06:35.467Z,1010.13
2016-06-10T14:07:35.455Z,1010.14
2016-06-10T14:08:35.427Z,1010.12
2016-06-10T14:09:35.445Z,1010.08
2016-06-10T14:10:35.386Z,1010.08
2016-06-10T14:11:35.373Z,1010.05
2016-06-10T14:12:35.345Z,1010.06
2016-06-10T14:13:35.332Z,1010.06
2016-06-10T14:14:35.320Z,1010.01
2016-06-10T14:15:35.291Z,1009.98
2016-06-10T14:16:35.357Z,1010.05
2016-06-10T14:17:35.313Z,1009.99
2016-06-10T14:18:35.238Z,1010.01
2016-06-10T14:19:35.210Z,1010.02
2016-06-10T14:20:35.198Z,1010.08
2016-06-10T14:21:35.170Z,1009.97
2016-06-10T14:22:35.157Z,1010.02
2016-06-10T14:23:35.144Z,1010.02
2016-06-10T14:24:35.116Z,1009.96
2016-06-10T14:25:35.104Z,1009.97
2016-06-10T14:26:35.075Z,1009.95
2016-06-10T14:27:35.063Z,1009.92
2016-06-10T14:28:35.175Z,1009.89
2016-06-10T14:29:35.022Z,1009.94
2016-06-10T14:30:34.994Z,1009.96
2016-06-10T14:31:34.982Z,1009.91
2016-06-10T14:32:34.954Z,1009.96
2016-06-10T14:33:34.941Z,1009.9
2016-06-10T14:34:34.913Z,1009.92
2016-06-10T14:35:34.900Z,1009.9
2016-06-10T14:36:34.934Z,1009.84
2016-06-10T14:37:34.859Z,1009.86
2016-06-10T14:38:34.847Z,1009.83
2016-06-10T14:39:34.818Z,1009.8
2016-06-10T14:40:34.806Z,1009.8
2016-06-10T14:41:34.794Z,1009.76
2016-06-10T14:42:34.782Z,1009.74
2016-06-10T14:43:34.753Z,1009.76
2016-06-10T14:44:34.725Z,1009.74
2016-06-10T14:45:34.712Z,1009.78
2016-06-10T14:46:34.684Z,1009.79
2016-06-10T14:47:34.671Z,1009.75
2016-06-10T14:48:34.659Z,1009.78
2016-06-10T14:49:34.631Z,1009.78
2016-06-10T14:50:34.618Z,1009.78
2016-06-10T14:51:34.621Z,1009.77
2016-06-10T14:52:34.608Z,1009.75
2016-06-10T14:53:34.549Z,1009.76
2016-06-10T14:54:34.552Z,1009.79
2016-06-10T14:55:34.525Z,1009.72
2016-06-10T14:56:34.496Z,1009.72
2016-06-10T14:57:34.484Z,1009.74
2016-06-10T14:58:34.455Z,1009.69
2016-06-10T14:59:34.443Z,1009.69
2016-06-10T15:00:34.415Z,1009.69
2016-06-10T15:01:34.402Z,1009.72
2016-06-10T15:02:34.405Z,1009.67
2016-06-10T15:03:34.361Z,1009.67
2016-06-10T15:04:34.349Z,1009.67
2016-06-10T15:05:34.337Z,1009.71
2016-06-10T15:06:34.323Z,1009.67
2016-06-10T15:07:34.295Z,1009.7
2016-06-10T15:08:34.267Z,1009.68
2016-06-10T15:09:34.254Z,1009.69
2016-06-10T15:10:34.242Z,1009.64
2016-06-10T15:11:34.229Z,1009.67
2016-06-10T15:12:34.202Z,1009.62
2016-06-10T15:13:34.173Z,1009.6
2016-06-10T15:14:34.145Z,1009.61
2016-06-10T15:15:34.133Z,1009.58
2016-06-10T15:16:34.120Z,1009.56
2016-06-10T15:17:34.092Z,1009.57
2016-06-10T15:18:34.079Z,1009.65
2016-06-10T15:19:34.051Z,1009.69
2016-06-10T15:20:34.038Z,1009.53
2016-06-10T15:21:34.027Z,1009.52
2016-06-10T15:22:33.997Z,1009.55
2016-06-10T15:23:33.985Z,1009.53
2016-06-10T15:24:33.972Z,1009.51
2016-06-10T15:25:33.944Z,1009.56
2016-06-10T15:26:33.932Z,1009.55
2016-06-10T15:27:33.904Z,1009.57
2016-06-10T15:28:33.891Z,1009.56
2016-06-10T15:29:33.863Z,1009.51
2016-06-10T15:30:33.850Z,1009.52
2016-06-10T15:31:33.838Z,1009.56
2016-06-10T15:32:33.810Z,1009.54
2016-06-10T15:33:33.798Z,1009.49
2016-06-10T15:34:33.769Z,1009.5
2016-06-10T15:35:33.757Z,1009.48
2016-06-10T15:36:33.743Z,1009.45
2016-06-10T15:37:33.715Z,1009.49
2016-06-10T15:38:33.703Z,1009.48
2016-06-10T15:39:33.675Z,1009.45
2016-06-10T15:40:33.662Z,1009.47
2016-06-10T15:41:34.056Z,1009.41
2016-06-10T15:42:33.622Z,1009.41
2016-06-10T15:43:33.609Z,1009.47
2016-06-10T15:44:33.581Z,1009.4
2016-06-10T15:45:33.568Z,1009.4
2016-06-10T15:46:33.540Z,1009.34
2016-06-10T15:47:33.528Z,1009.35
2016-06-10T15:48:33.516Z,1009.36
2016-06-10T15:49:33.487Z,1009.35
2016-06-10T15:50:33.475Z,1009.31
2016-06-10T15:51:33.446Z,1009.27
2016-06-10T15:52:33.434Z,1009.33
2016-06-10T15:53:33.420Z,1009.27
2016-06-10T15:54:33.393Z,1009.27
2016-06-10T15:55:33.381Z,1009.27
2016-06-10T15:56:33.352Z,1009.3
2016-06-10T15:57:33.355Z,1009.27
2016-06-10T15:58:33.327Z,1009.26
2016-06-10T15:59:33.299Z,1009.25
2016-06-10T16:00:33.287Z,1009.22
2016-06-10T16:01:33.274Z,1009.2
2016-06-10T16:02:33.245Z,1009.27
2016-06-10T16:03:33.233Z,1009.23
2016-06-10T16:04:33.204Z,1009.26
2016-06-10T16:05:33.193Z,1009.22
2016-06-10T16:06:33.179Z,1009.24
2016-06-10T16:07:33.168Z,1009.21
2016-06-10T16:08:33.139Z,1009.2
2016-06-10T16:09:33.111Z,1009.22
2016-06-10T16:10:33.098Z,1009.17
2016-06-10T16:11:33.070Z,1009.2
2016-06-10T16:12:33.058Z,1009.2
2016-06-10T16:13:33.046Z,1009.22
2016-06-10T16:14:33.017Z,1009.2
2016-06-10T16:15:33.004Z,1009.25
2016-06-10T16:16:32.976Z,1009.17
2016-06-10T16:17:32.964Z,1009.16
2016-06-10T16:18:32.951Z,1009.15
2016-06-10T16:19:32.922Z,1009.18
2016-06-10T16:20:32.910Z,1009.19
2016-06-10T16:21:32.882Z,1009.18
2016-06-10T16:22:32.870Z,1009.19
2016-06-10T16:23:32.857Z,1009.12
2016-06-10T16:24:32.829Z,1009.12
2016-06-10T16:25:32.816Z,1009.17
2016-06-10T16:26:32.788Z,1009.12
2016-06-10T16:27:32.775Z,1009.14
2016-06-10T16:28:32.763Z,1009.1
2016-06-10T16:29:32.735Z,1009.13
2016-06-10T16:30:32.722Z,1009.1
2016-06-10T16:31:32.820Z,1009.15
2016-06-10T16:32:32.682Z,1009.14
2016-06-10T16:33:32.654Z,1009.14
2016-06-10T16:34:32.641Z,1009.13
2016-06-10T16:35:32.629Z,1009.18
2016-06-10T16:36:32.600Z,1009.19
2016-06-10T16:37:32.588Z,1009.16
2016-06-10T16:38:32.575Z,1009.17
2016-06-10T16:39:32.547Z,1009.18
2016-06-10T16:40:32.534Z,1009.12
2016-06-10T16:41:32.569Z,1009.11
2016-06-10T16:42:32.493Z,1009.1
2016-06-10T16:43:32.466Z,1009.05
2016-06-10T16:44:32.453Z,1009.09
2016-06-10T16:45:32.440Z,1009.04
2016-06-10T16:46:32.413Z,1009.05
2016-06-10T16:47:32.399Z,1009.01
2016-06-10T16:48:32.372Z,1009.05
2016-06-10T16:49:32.359Z,1009.05
2016-06-10T16:50:32.346Z,1009
2016-06-10T16:51:32.318Z,1009
2016-06-10T16:52:32.306Z,1009.02
2016-06-10T16:53:32.294Z,1009.08
2016-06-10T16:54:32.266Z,1009.01
2016-06-10T16:55:32.236Z,1009.03
2016-06-10T16:56:32.225Z,1009.02
2016-06-10T16:57:32.430Z,1009
2016-06-10T16:58:32.183Z,1009
2016-06-10T16:59:32.170Z,1008.97
2016-06-10T17:00:32.159Z,1009.05
2016-06-10T17:01:32.130Z,1009.02
2016-06-10T17:02:32.102Z,1008.99
2016-06-10T17:03:32.090Z,1008.95
2016-06-10T17:04:32.077Z,1008.96
2016-06-10T17:05:32.049Z,1008.94
2016-06-10T17:06:32.052Z,1008.95
2016-06-10T17:07:32.055Z,1008.97
2016-06-10T17:08:31.995Z,1008.93
2016-06-10T17:09:31.983Z,1008.94
2016-06-10T17:10:31.986Z,1008.98
2016-06-10T17:11:31.943Z,1008.96
2016-06-10T17:12:31.929Z,1008.97
2016-06-10T17:13:31.933Z,1008.93
2016-06-10T17:14:31.889Z,1008.92
2016-06-10T17:15:31.861Z,1008.9
2016-06-10T17:16:31.895Z,1008.86
2016-06-10T17:17:31.820Z,1008.9
2016-06-10T17:18:31.807Z,1008.86
2016-06-10T17:19:31.795Z,1008.89
2016-06-10T17:20:31.767Z,1008.9
2016-06-10T17:21:31.755Z,1008.89
2016-06-10T17:22:31.726Z,1008.84
2016-06-10T17:23:31.714Z,1008.83
2016-06-10T17:24:31.701Z,1008.86
2016-06-10T17:25:31.672Z,1008.88
2016-06-10T17:26:31.660Z,1008.82
2016-06-10T17:27:31.631Z,1008.86
2016-06-10T17:28:31.620Z,1008.84
2016-06-10T17:29:31.590Z,1008.83
2016-06-10T17:30:31.579Z,1008.87
2016-06-10T17:31:31.551Z,1008.86
2016-06-10T17:32:31.538Z,1008.85
2016-06-10T17:33:31.526Z,1008.82
2016-06-10T17:34:31.497Z,1008.81
2016-06-10T17:35:31.484Z,1008.82
2016-06-10T17:36:31.472Z,1008.79
2016-06-10T17:37:31.444Z,1008.79
2016-06-10T17:38:31.415Z,1008.78
2016-06-10T17:39:31.404Z,1008.81
2016-06-10T17:40:31.391Z,1008.71
2016-06-10T17:41:31.363Z,1008.77
2016-06-10T17:42:31.349Z,1008.72
2016-06-10T17:43:31.322Z,1008.7
2016-06-10T17:44:31.309Z,1008.71
2016-06-10T17:45:31.297Z,1008.69
2016-06-10T17:46:31.268Z,1008.67
2016-06-10T17:47:31.257Z,1008.69
2016-06-10T17:48:31.243Z,1008.67
2016-06-10T17:49:31.215Z,1008.64
2016-06-10T17:50:31.187Z,1008.69
2016-06-10T17:51:31.175Z,1008.65
2016-06-10T17:52:31.161Z,1008.66
2016-06-10T17:53:31.134Z,1008.68
2016-06-10T17:54:31.121Z,1008.64
2016-06-10T17:55:31.108Z,1008.62
2016-06-10T17:56:31.081Z,1008.65
2016-06-10T17:57:31.677Z,1008.64
2016-06-10T17:58:31.040Z,1008.64
2016-06-10T17:59:31.027Z,1008.6
2016-06-10T18:00:31.016Z,1008.56
2016-06-10T18:01:30.986Z,1008.59
2016-06-10T18:02:30.974Z,1008.56
2016-06-10T18:03:30.946Z,1008.6
2016-06-10T18:04:30.933Z,1008.56
2016-06-10T18:05:30.905Z,1008.56
2016-06-10T18:06:30.893Z,1008.54
2016-06-10T18:07:30.879Z,1008.57
2016-06-10T18:08:30.852Z,1008.56
2016-06-10T18:09:30.839Z,1008.54
2016-06-10T18:10:30.811Z,1008.56
2016-06-10T18:11:30.799Z,1008.53
2016-06-10T18:12:30.770Z,1008.6
2016-06-10T18:13:30.758Z,1008.55
2016-06-10T18:14:30.746Z,1008.55
2016-06-10T18:15:30.717Z,1008.49
2016-06-10T18:16:30.704Z,1008.48
2016-06-10T18:17:30.676Z,1008.5
2016-06-10T18:18:30.664Z,1008.5
2016-06-10T18:19:30.651Z,1008.51
2016-06-10T18:20:30.623Z,1008.47
2016-06-10T18:21:30.610Z,1008.52
2016-06-10T18:22:30.582Z,1008.45
2016-06-10T18:23:30.570Z,1008.51
2016-06-10T18:24:30.557Z,1008.51
2016-06-10T18:25:30.529Z,1008.52
2016-06-10T18:26:30.516Z,1008.49
2016-06-10T18:27:30.488Z,1008.51
2016-06-10T18:28:30.476Z,1008.56
2016-06-10T18:29:30.463Z,1008.48
2016-06-10T18:30:30.435Z,1008.53
2016-06-10T18:31:30.422Z,1008.53
2016-06-10T18:32:30.410Z,1008.55
2016-06-10T18:33:30.382Z,1008.54
2016-06-10T18:34:30.370Z,1008.55
2016-06-10T18:35:30.341Z,1008.51
2016-06-10T18:36:30.328Z,1008.57
2016-06-10T18:37:30.300Z,1008.58
2016-06-10T18:38:30.288Z,1008.55
2016-06-10T18:39:30.260Z,1008.57
2016-06-10T18:40:30.247Z,1008.57
2016-06-10T18:41:30.234Z,1008.6
2016-06-10T18:42:30.378Z,1008.55
2016-06-10T18:43:30.193Z,1008.59
2016-06-10T18:44:30.166Z,1008.59
2016-06-10T18:45:30.154Z,1008.58
2016-06-10T18:46:30.156Z,1008.59
2016-06-10T18:47:30.113Z,1008.58
2016-06-10T18:48:30.099Z,1008.55
2016-06-10T18:49:30.072Z,1008.58
2016-06-10T18:50:30.059Z,1008.55
2016-06-10T18:51:30.031Z,1008.57
2016-06-10T18:52:30.018Z,1008.58
2016-06-10T18:53:30.006Z,1008.61
2016-06-10T18:54:29.978Z,1008.61
2016-06-10T18:55:29.965Z,1008.56
2016-06-10T18:56:29.937Z,1008.59
2016-06-10T18:57:29.924Z,1008.53
2016-06-10T18:58:29.912Z,1008.57
2016-06-10T18:59:29.883Z,1008.54
2016-06-10T19:00:29.871Z,1008.62
2016-06-10T19:01:29.859Z,1008.54
2016-06-10T19:02:29.830Z,1008.52
2016-06-10T19:03:29.817Z,1008.53
2016-06-10T19:04:29.790Z,1008.51
2016-06-10T19:05:29.777Z,1008.52
2016-06-10T19:06:29.749Z,1008.53
2016-06-10T19:07:29.736Z,1008.49
2016-06-10T19:08:29.724Z,1008.48
2016-06-10T19:09:29.695Z,1008.47
2016-06-10T19:10:29.683Z,1008.5
2016-06-10T19:11:29.654Z,1008.47
2016-06-10T19:12:29.846Z,1008.48
2016-06-10T19:13:29.629Z,1008.45
2016-06-10T19:14:29.601Z,1008.46
2016-06-10T19:15:29.589Z,1008.49
2016-06-10T19:16:29.561Z,1008.5
2016-06-10T19:17:29.548Z,1008.48
2016-06-10T19:18:29.520Z,1008.43
2016-06-10T19:19:29.508Z,1008.48
2016-06-10T19:20:29.495Z,1008.44
2016-06-10T19:21:29.467Z,1008.48
2016-06-10T19:22:29.454Z,1008.45
2016-06-10T19:23:29.426Z,1008.44
2016-06-10T19:24:29.413Z,1008.44
2016-06-10T19:25:29.386Z,1008.47
2016-06-10T19:26:29.373Z,1008.44
2016-06-10T19:27:30.219Z,1008.44
2016-06-10T19:28:29.331Z,1008.42
2016-06-10T19:29:29.320Z,1008.45
2016-06-10T19:30:29.292Z,1008.51
2016-06-10T19:31:29.279Z,1008.46
2016-06-10T19:32:29.266Z,1008.53
2016-06-10T19:33:29.238Z,1008.53
2016-06-10T19:34:29.225Z,1008.48
2016-06-10T19:35:29.197Z,1008.53
2016-06-10T19:36:29.185Z,1008.47
2016-06-10T19:37:29.156Z,1008.51
2016-06-10T19:38:29.145Z,1008.51
2016-06-10T19:39:29.131Z,1008.56
2016-06-10T19:40:29.119Z,1008.51
2016-06-10T19:41:29.090Z,1008.52
2016-06-10T19:42:29.062Z,1008.52
2016-06-10T19:43:29.050Z,1008.53
2016-06-10T19:44:29.038Z,1008.6
2016-06-10T19:45:29.008Z,1008.56
2016-06-10T19:46:28.997Z,1008.55
2016-06-10T19:47:28.969Z,1008.57
2016-06-10T19:48:28.956Z,1008.57
2016-06-10T19:49:28.928Z,1008.56
2016-06-10T19:50:28.915Z,1008.59
2016-06-10T19:51:28.902Z,1008.53
2016-06-10T19:52:28.875Z,1008.6
2016-06-10T19:53:28.862Z,1008.57
2016-06-10T19:54:28.850Z,1008.6
2016-06-10T19:55:28.822Z,1008.58
2016-06-10T19:56:28.792Z,1008.57
2016-06-10T19:57:28.796Z,1008.62
2016-06-10T19:58:28.767Z,1008.62
2016-06-10T19:59:28.818Z,1008.61
2016-06-10T20:00:28.789Z,1008.58
2016-06-10T20:01:28.699Z,1008.62
2016-06-10T20:02:28.687Z,1008.59
2016-06-10T20:03:28.674Z,1008.6
2016-06-10T20:04:28.647Z,1008.59
2016-06-10T20:05:28.633Z,1008.6
2016-06-10T20:06:28.605Z,1008.6
2016-06-10T20:07:28.593Z,1008.58
2016-06-10T20:08:28.564Z,1008.58
2016-06-10T20:09:28.552Z,1008.56
2016-06-10T20:10:28.523Z,1008.59
2016-06-10T20:11:28.511Z,1008.58
2016-06-10T20:12:28.514Z,1008.55
2016-06-10T20:13:28.470Z,1008.61
2016-06-10T20:14:28.458Z,1008.57
2016-06-10T20:15:28.430Z,1008.55
2016-06-10T20:16:28.417Z,1008.61
2016-06-10T20:17:28.405Z,1008.57
2016-06-10T20:18:28.376Z,1008.62
2016-06-10T20:19:28.364Z,1008.55
2016-06-10T20:20:28.335Z,1008.56
2016-06-10T20:21:28.324Z,1008.62
2016-06-10T20:22:28.311Z,1008.61
2016-06-10T20:23:28.282Z,1008.64
2016-06-10T20:24:28.270Z,1008.55
2016-06-10T20:25:28.241Z,1008.58
2016-06-10T20:26:28.229Z,1008.65
2016-06-10T20:27:28.201Z,1008.61
2016-06-10T20:28:28.188Z,1008.64
2016-06-10T20:29:28.176Z,1008.6
2016-06-10T20:30:28.147Z,1008.65
2016-06-10T20:31:28.135Z,1008.62
2016-06-10T20:32:28.123Z,1008.6
2016-06-10T20:33:28.094Z,1008.64
2016-06-10T20:34:28.082Z,1008.61
2016-06-10T20:35:28.053Z,1008.67